createdAt,value
2018-06-28T00:03:00.706Z,101756.00
2018-06-28T00:07:53.921Z,101753.00
2018-06-28T00:12:47.180Z,101752.00
2018-06-28T00:17:40.407Z,101755.00
2018-06-28T00:22:33.522Z,101756.00
2018-06-28T00:27:26.827Z,101758.00
2018-06-28T00:32:20.150Z,101754.00
2018-06-28T00:37:13.365Z,101760.00
2018-06-28T00:42:06.656Z,101762.00
2018-06-28T00:46:59.907Z,101762.00
2018-06-28T00:51:53.128Z,101764.00
2018-06-28T00:56:46.295Z,101760.00
2018-06-28T01:01:39.443Z,101759.00
2018-06-28T01:06:32.732Z,101750.00
2018-06-28T01:11:25.939Z,101755.00
2018-06-28T01:16:19.268Z,101751.00
2018-06-28T01:21:12.684Z,101752.00
2018-06-28T01:26:05.940Z,101753.00
2018-06-28T01:30:59.107Z,101755.00
2018-06-28T01:35:53.109Z,101757.00
2018-06-28T01:40:46.293Z,101754.00
2018-06-28T01:45:39.412Z,101760.00
2018-06-28T01:50:32.622Z,101756.00
2018-06-28T01:55:25.873Z,101752.00
2018-06-28T02:00:19.126Z,101756.00
2018-06-28T02:05:12.349Z,101757.00
2018-06-28T02:10:05.594Z,101755.00
2018-06-28T02:14:58.824Z,101752.00
2018-06-28T02:19:52.074Z,101750.00
2018-06-28T02:24:45.231Z,101743.00
2018-06-28T02:29:38.369Z,101749.00
2018-06-28T02:34:31.628Z,101749.00
2018-06-28T02:39:24.947Z,101751.00
2018-06-28T02:44:18.234Z,101752.00
2018-06-28T02:49:11.391Z,101763.00
2018-06-28T02:54:04.656Z,101759.00
2018-06-28T02:58:57.896Z,101758.00
2018-06-28T03:03:51.136Z,101759.00
2018-06-28T03:08:44.281Z,101761.00
2018-06-28T03:13:37.512Z,101762.00
2018-06-28T03:18:30.825Z,101763.00
2018-06-28T03:23:24.056Z,101765.00
2018-06-28T03:28:17.321Z,101766.00
2018-06-28T03:33:10.581Z,101765.00
2018-06-28T03:38:03.890Z,101771.00
2018-06-28T03:42:57.090Z,101765.00
2018-06-28T03:47:50.308Z,101769.00
2018-06-28T03:52:43.603Z,101760.00
2018-06-28T03:57:37.152Z,101766.00
2018-06-28T04:02:30.403Z,101767.00
2018-06-28T04:07:23.655Z,101768.00
2018-06-28T04:12:16.899Z,101768.00
2018-06-28T04:17:10.170Z,101774.00
2018-06-28T04:22:04.030Z,101774.00
2018-06-28T04:26:57.234Z,101779.00
2018-06-28T04:31:50.506Z,101772.00
2018-06-28T04:36:43.778Z,101770.00
2018-06-28T04:41:37.948Z,101772.00
2018-06-28T04:46:31.210Z,101771.00
2018-06-28T04:51:24.465Z,101766.00
2018-06-28T04:56:17.688Z,101757.00
2018-06-28T05:01:10.872Z,101747.00
2018-06-28T05:06:04.238Z,101749.00
2018-06-28T05:10:57.351Z,101740.00
2018-06-28T05:15:50.599Z,101742.00
2018-06-28T05:20:43.826Z,101735.00
2018-06-28T05:25:37.059Z,101734.00
2018-06-28T05:30:30.282Z,101736.00
2018-06-28T05:35:23.534Z,101732.00
2018-06-28T05:40:16.784Z,101727.00
2018-06-28T05:45:10.031Z,101731.00
2018-06-28T05:50:03.282Z,101718.00
2018-06-28T05:54:56.515Z,101721.00
2018-06-28T05:59:49.730Z,101720.00
2018-06-28T06:04:42.951Z,101723.00
2018-06-28T06:09:36.216Z,101725.00
2018-06-28T06:14:29.474Z,101740.00
2018-06-28T06:19:22.621Z,101718.00
2018-06-28T06:24:15.876Z,101727.00
2018-06-28T06:29:09.173Z,101726.00
2018-06-28T06:34:02.401Z,101727.00
2018-06-28T06:38:56.238Z,101722.00
2018-06-28T06:43:49.748Z,101711.00
2018-06-28T06:48:43.056Z,101721.00
2018-06-28T06:53:36.256Z,101724.00
2018-06-28T06:58:29.496Z,101716.00
2018-06-28T07:03:22.750Z,101718.00
2018-06-28T07:08:16.048Z,101724.00
2018-06-28T07:13:09.332Z,101722.00
2018-06-28T07:18:02.575Z,101711.00
2018-06-28T07:22:56.000Z,101723.00
2018-06-28T07:27:49.178Z,101730.00
2018-06-28T07:32:42.448Z,101722.00
2018-06-28T07:37:35.712Z,101727.00
2018-06-28T07:42:29.000Z,101721.00
2018-06-28T07:47:22.279Z,101732.00
2018-06-28T07:52:15.546Z,101724.00
2018-06-28T07:57:08.810Z,101716.00
2018-06-28T08:02:02.068Z,101720.00
2018-06-28T08:06:55.328Z,101709.00
2018-06-28T08:11:48.587Z,101714.00
2018-06-28T08:16:41.874Z,101718.00
2018-06-28T08:21:35.173Z,101707.00
2018-06-28T08:26:28.431Z,101707.00
2018-06-28T08:31:21.713Z,101709.00
2018-06-28T08:36:15.014Z,101711.00
2018-06-28T08:41:08.119Z,101703.00
2018-06-28T08:46:01.399Z,101706.00
2018-06-28T08:50:54.671Z,101703.00
2018-06-28T08:55:47.807Z,101709.00
2018-06-28T09:00:41.066Z,101700.00
2018-06-28T09:05:34.347Z,101701.00
2018-06-28T09:10:28.008Z,101704.00
2018-06-28T09:15:21.419Z,101696.00
2018-06-28T09:20:14.614Z,101696.00
2018-06-28T09:25:08.711Z,101691.00
2018-06-28T09:30:02.018Z,101688.00
2018-06-28T09:34:55.316Z,101677.00
2018-06-28T09:39:48.610Z,101670.00
2018-06-28T09:44:41.946Z,101668.00
2018-06-28T09:49:35.202Z,101653.00
2018-06-28T09:54:28.551Z,101652.00
2018-06-28T09:59:21.793Z,101658.00
2018-06-28T10:04:15.096Z,101646.00
2018-06-28T10:09:09.470Z,101646.00
2018-06-28T10:14:02.764Z,101642.00
2018-06-28T10:18:56.819Z,101636.00
2018-06-28T10:23:50.062Z,101638.00
2018-06-28T10:28:43.308Z,101628.00
2018-06-28T10:33:36.582Z,101628.00
2018-06-28T10:38:29.847Z,101631.00
2018-06-28T10:43:23.125Z,101618.00
2018-06-28T10:48:16.483Z,101621.00
2018-06-28T10:53:09.900Z,101613.00
2018-06-28T10:58:03.201Z,101619.00
2018-06-28T11:02:56.540Z,101608.00
2018-06-28T11:07:50.189Z,101585.00
2018-06-28T11:12:43.482Z,101593.00
2018-06-28T11:17:36.756Z,101580.00
2018-06-28T11:22:30.048Z,101586.00
2018-06-28T11:27:23.326Z,101579.00
2018-06-28T11:32:16.613Z,101587.00
2018-06-28T11:37:09.876Z,101578.00
2018-06-28T11:42:03.200Z,101567.00
2018-06-28T11:46:56.319Z,101576.00
2018-06-28T11:51:50.380Z,101546.00
2018-06-28T11:56:43.644Z,101537.00
2018-06-28T12:01:36.791Z,101547.00
2018-06-28T12:06:30.030Z,101534.00
2018-06-28T12:11:23.230Z,101545.00
2018-06-28T12:16:16.496Z,101526.00
2018-06-28T12:21:09.803Z,101518.00
2018-06-28T12:26:02.970Z,101501.00
2018-06-28T12:30:56.412Z,101500.00
2018-06-28T12:35:54.199Z,101487.00
2018-06-28T12:40:47.539Z,101504.00
2018-06-28T12:45:40.806Z,101488.00
2018-06-28T12:50:34.137Z,101487.00
2018-06-28T12:55:37.418Z,101477.00
2018-06-28T13:00:30.638Z,101471.00
2018-06-28T13:05:24.398Z,101475.00
2018-06-28T13:10:18.430Z,101449.00
2018-06-28T13:15:12.742Z,101461.00
2018-06-28T13:20:06.741Z,101459.00
2018-06-28T13:25:00.033Z,101460.00
2018-06-28T13:29:53.473Z,101454.00
2018-06-28T13:34:46.716Z,101449.00
2018-06-28T13:39:40.259Z,101438.00
2018-06-28T13:44:33.481Z,101429.00
2018-06-28T13:49:26.742Z,101416.00
2018-06-28T13:54:19.985Z,101418.00
2018-06-28T13:59:13.217Z,101410.00
2018-06-28T14:04:06.518Z,101396.00
2018-06-28T14:08:59.747Z,101397.00
2018-06-28T14:13:53.048Z,101389.00
2018-06-28T14:18:46.385Z,101389.00
2018-06-28T14:23:39.646Z,101385.00
2018-06-28T14:28:32.897Z,101387.00
2018-06-28T14:33:26.154Z,101382.00
2018-06-28T14:38:19.294Z,101377.00
2018-06-28T14:43:12.527Z,101380.00
2018-06-28T14:48:05.812Z,101369.00
2018-06-28T14:52:59.060Z,101366.00
2018-06-28T14:57:52.192Z,101367.00
2018-06-28T15:02:45.466Z,101356.00
2018-06-28T15:07:38.774Z,101349.00
2018-06-28T15:12:31.921Z,101344.00
2018-06-28T15:17:25.286Z,101337.00
2018-06-28T15:22:18.658Z,101337.00
2018-06-28T15:27:11.918Z,101342.00
2018-06-28T15:32:05.174Z,101339.00
2018-06-28T15:36:59.320Z,101338.00
2018-06-28T15:41:52.640Z,101329.00
2018-06-28T15:46:45.904Z,101325.00
2018-06-28T15:51:39.394Z,101315.00
2018-06-28T15:56:32.688Z,101317.00
2018-06-28T16:01:25.962Z,101316.00
2018-06-28T16:06:19.318Z,101329.00
2018-06-28T16:11:12.704Z,101312.00
2018-06-28T16:16:05.965Z,101316.00
2018-06-28T16:20:59.284Z,101313.00
2018-06-28T16:25:53.256Z,101322.00
2018-06-28T16:30:46.473Z,101315.00
2018-06-28T16:35:39.750Z,101304.00
2018-06-28T16:40:33.023Z,101311.00
2018-06-28T16:45:26.289Z,101302.00
2018-06-28T16:50:19.564Z,101302.00
2018-06-28T16:55:12.835Z,101308.00
2018-06-28T17:00:07.712Z,101301.00
2018-06-28T17:05:01.065Z,101291.00
2018-06-28T17:09:54.194Z,101293.00
2018-06-28T17:14:47.438Z,101296.00
2018-06-28T17:19:40.682Z,101299.00
2018-06-28T17:24:33.829Z,101282.00
2018-06-28T17:29:27.066Z,101285.00
2018-06-28T17:34:21.295Z,101296.00
2018-06-28T17:39:14.589Z,101289.00
2018-06-28T17:44:07.891Z,101297.00
2018-06-28T17:49:01.158Z,101301.00
2018-06-28T17:53:54.285Z,101306.00
2018-06-28T17:58:47.568Z,101302.00
2018-06-28T18:03:40.867Z,101297.00
2018-06-28T18:08:34.099Z,101293.00
2018-06-28T18:13:27.332Z,101298.00
2018-06-28T18:18:20.573Z,101297.00
2018-06-28T18:23:13.837Z,101302.00
2018-06-28T18:28:07.081Z,101300.00
2018-06-28T18:33:00.345Z,101293.00
2018-06-28T18:37:54.525Z,101305.00
2018-06-28T18:42:47.685Z,101296.00
2018-06-28T18:47:40.823Z,101295.00
2018-06-28T18:52:34.086Z,101301.00
2018-06-28T18:57:27.386Z,101297.00
2018-06-28T19:02:21.346Z,101295.00
2018-06-28T19:07:14.605Z,101302.00
2018-06-28T19:12:08.283Z,101300.00
2018-06-28T19:17:01.574Z,101305.00
2018-06-28T19:22:00.558Z,101303.00
2018-06-28T19:26:53.816Z,101310.00
2018-06-28T19:31:52.691Z,101315.00
2018-06-28T19:36:45.973Z,101321.00
2018-06-28T19:41:44.961Z,101322.00
2018-06-28T19:46:44.046Z,101326.00
2018-06-28T19:51:42.920Z,101333.00
2018-06-28T19:56:36.238Z,101339.00
2018-06-28T20:01:35.257Z,101338.00
2018-06-28T20:06:28.517Z,101342.00
2018-06-28T20:11:21.770Z,101348.00
2018-06-28T20:16:20.701Z,101347.00
2018-06-28T20:21:13.973Z,101354.00
2018-06-28T20:26:13.157Z,101360.00
2018-06-28T20:31:11.846Z,101360.00
2018-06-28T20:36:05.176Z,101357.00
2018-06-28T20:40:58.855Z,101350.00
2018-06-28T20:45:52.410Z,101369.00
2018-06-28T20:50:45.682Z,101375.00
2018-06-28T20:55:38.904Z,101376.00
2018-06-28T21:00:32.169Z,101373.00
2018-06-28T21:05:25.422Z,101379.00
2018-06-28T21:10:18.697Z,101380.00
2018-06-28T21:15:12.008Z,101383.00
2018-06-28T21:20:05.821Z,101376.00
2018-06-28T21:24:59.077Z,101379.00
2018-06-28T21:29:52.323Z,101380.00
2018-06-28T21:34:45.598Z,101383.00
2018-06-28T21:39:38.854Z,101382.00
2018-06-28T21:44:32.123Z,101381.00
2018-06-28T21:49:25.255Z,101382.00
2018-06-28T21:54:18.599Z,101381.00
2018-06-28T21:59:12.066Z,101384.00
2018-06-28T22:04:05.317Z,101382.00
2018-06-28T22:08:58.449Z,101379.00
2018-06-28T22:13:51.688Z,101383.00
2018-06-28T22:18:45.014Z,101387.00
2018-06-28T22:23:38.257Z,101385.00
2018-06-28T22:28:31.467Z,101393.00
2018-06-28T22:33:25.024Z,101381.00
2018-06-28T22:38:18.248Z,101383.00
2018-06-28T22:43:11.420Z,101386.00
2018-06-28T22:48:04.846Z,101391.00
2018-06-28T22:52:59.013Z,101384.00
2018-06-28T22:57:52.274Z,101389.00
2018-06-28T23:02:45.427Z,101381.00
2018-06-28T23:07:40.670Z,101389.00
2018-06-28T23:12:34.586Z,101391.00
2018-06-28T23:17:27.810Z,101391.00
2018-06-28T23:22:44.256Z,101395.00
2018-06-28T23:27:37.516Z,101396.00
2018-06-28T23:32:30.737Z,101394.00
2018-06-28T23:37:23.974Z,101389.00
2018-06-28T23:42:17.192Z,101390.00
2018-06-28T23:47:10.461Z,101395.00
2018-06-28T23:52:03.700Z,101398.00
2018-06-28T23:56:56.946Z,101403.00
